KCAO/CAO METAR and TAF weather

Enter ICAO airport designator
Station Type Date Time Source
KCAO METAR 2020/08/15 09:55 UTC NOAA

KCAO 150955Z AUTO 00000KT 10SM CLR 20/12 A3019 RMK AO2 SLP137 T02000117


Station Type Date Time Source
KCAO Decoded METAR 2020/08/15 09:55 UTC NOAA

CLAYTON MUNICIPAL AIRPARK, NM, United States (KCAO) 36-27N 103-09W 1514M
Aug 15, 2020 - 05:55 AM EDT / 2020.08.15 0955 UTC
Wind: Calm:0
Visibility: 10 mile(s):0
Sky conditions: clear
Temperature: 68.0 F (20.0 C)
Dew Point: 53.1 F (11.7 C)
Relative Humidity: 58%
Pressure (altimeter): 30.19 in. Hg (1022 hPa)
ob: KCAO 150955Z AUTO 00000KT 10SM CLR 20/12 A3019 RMK AO2 SLP137 T02000117
cycle: 10

Station Type Date Time Source
KCAO TAF UTC NOAA

Error!

Example: see airport list